sensor_id;sensor_type;location;lat;lon;timestamp;temperature;humidity
15991;DHT22;8100;50.994;4.538;2023-12-28T00:01:51;10.00;99.90
15991;DHT22;8100;50.994;4.538;2023-12-28T00:04:38;10.10;99.90
15991;DHT22;8100;50.994;4.538;2023-12-28T00:07:25;10.10;99.90
15991;DHT22;8100;50.994;4.538;2023-12-28T00:10:12;10.10;1.00
15991;DHT22;8100;50.994;4.538;2023-12-28T00:13:00;10.10;1.00
15991;DHT22;8100;50.994;4.538;2023-12-28T00:15:47;10.10;1.00
15991;DHT22;8100;50.994;4.538;2023-12-28T00:18:34;10.10;1.00
15991;DHT22;8100;50.994;4.538;2023-12-28T00:21:21;10.10;1.00
15991;DHT22;8100;50.994;4.538;2023-12-28T00:24:08;10.10;1.00
15991;DHT22;8100;50.994;4.538;2023-12-28T00:26:55;10.10;1.00
15991;DHT22;8100;50.994;4.538;2023-12-28T00:29:43;10.10;1.00
15991;DHT22;8100;50.994;4.538;2023-12-28T00:32:30;10.20;1.00
15991;DHT22;8100;50.994;4.538;2023-12-28T00:35:17;10.20;1.00
15991;DHT22;8100;50.994;4.538;2023-12-28T00:38:04;10.20;1.00
15991;DHT22;8100;50.994;4.538;2023-12-28T00:40:51;10.30;1.00
15991;DHT22;8100;50.994;4.538;2023-12-28T00:43:38;10.30;1.00
15991;DHT22;8100;50.994;4.538;2023-12-28T00:46:26;10.20;1.00
15991;DHT22;8100;50.994;4.538;2023-12-28T00:49:13;10.20;1.00
15991;DHT22;8100;50.994;4.538;2023-12-28T00:52:00;10.20;1.00
15991;DHT22;8100;50.994;4.538;2023-12-28T00:54:47;10.10;1.00
15991;DHT22;8100;50.994;4.538;2023-12-28T00:57:34;10.20;1.00
15991;DHT22;8100;50.994;4.538;2023-12-28T01:00:21;10.20;1.00
15991;DHT22;8100;50.994;4.538;2023-12-28T01:03:09;10.20;1.00
15991;DHT22;8100;50.994;4.538;2023-12-28T01:05:56;10.20;1.00
15991;DHT22;8100;50.994;4.538;2023-12-28T01:08:43;10.20;1.00
15991;DHT22;8100;50.994;4.538;2023-12-28T01:11:30;10.20;1.00
15991;DHT22;8100;50.994;4.538;2023-12-28T01:14:17;10.20;1.00
15991;DHT22;8100;50.994;4.538;2023-12-28T01:17:04;10.20;1.00
15991;DHT22;8100;50.994;4.538;2023-12-28T01:19:53;10.30;1.00
15991;DHT22;8100;50.994;4.538;2023-12-28T01:22:40;10.30;1.00
15991;DHT22;8100;50.994;4.538;2023-12-28T01:25:27;10.30;1.00
15991;DHT22;8100;50.994;4.538;2023-12-28T01:28:14;10.20;9.80
15991;DHT22;8100;50.994;4.538;2023-12-28T01:31:01;10.20;99.90
15991;DHT22;8100;50.994;4.538;2023-12-28T01:33:48;10.20;99.90
15991;DHT22;8100;50.994;4.538;2023-12-28T01:36:36;10.20;99.90
15991;DHT22;8100;50.994;4.538;2023-12-28T01:39:27;10.30;99.90
15991;DHT22;8100;50.994;4.538;2023-12-28T01:42:14;10.30;25.90
15991;DHT22;8100;50.994;4.538;2023-12-28T01:45:01;10.30;95.00
15991;DHT22;8100;50.994;4.538;2023-12-28T01:47:48;10.40;36.70
15991;DHT22;8100;50.994;4.538;2023-12-28T01:50:36;10.30;96.30
15991;DHT22;8100;50.994;4.538;2023-12-28T01:53:25;10.30;89.40
15991;DHT22;8100;50.994;4.538;2023-12-28T01:56:12;10.20;99.90
15991;DHT22;8100;50.994;4.538;2023-12-28T01:58:59;10.40;1.00
15991;DHT22;8100;50.994;4.538;2023-12-28T02:01:47;10.30;1.00
15991;DHT22;8100;50.994;4.538;2023-12-28T02:04:34;10.20;35.10
15991;DHT22;8100;50.994;4.538;2023-12-28T02:07:21;10.30;1.00
15991;DHT22;8100;50.994;4.538;2023-12-28T02:10:11;10.30;1.00
15991;DHT22;8100;50.994;4.538;2023-12-28T02:12:58;10.30;1.00
15991;DHT22;8100;50.994;4.538;2023-12-28T02:15:47;10.30;1.00
15991;DHT22;8100;50.994;4.538;2023-12-28T02:18:40;10.20;1.00
15991;DHT22;8100;50.994;4.538;2023-12-28T02:21:30;10.30;1.00
15991;DHT22;8100;50.994;4.538;2023-12-28T02:24:18;10.30;1.00
15991;DHT22;8100;50.994;4.538;2023-12-28T02:27:06;10.30;1.00
15991;DHT22;8100;50.994;4.538;2023-12-28T02:29:55;10.30;1.00
15991;DHT22;8100;50.994;4.538;2023-12-28T02:32:52;10.40;1.00
15991;DHT22;8100;50.994;4.538;2023-12-28T02:35:43;10.50;1.00
15991;DHT22;8100;50.994;4.538;2023-12-28T02:38:33;10.50;1.00
15991;DHT22;8100;50.994;4.538;2023-12-28T02:41:23;10.50;1.00
15991;DHT22;8100;50.994;4.538;2023-12-28T02:44:12;10.50;1.00
15991;DHT22;8100;50.994;4.538;2023-12-28T02:46:59;10.60;1.00
15991;DHT22;8100;50.994;4.538;2023-12-28T02:49:46;10.60;1.00
15991;DHT22;8100;50.994;4.538;2023-12-28T02:52:33;10.60;1.00
15991;DHT22;8100;50.994;4.538;2023-12-28T02:55:20;10.60;1.00
15991;DHT22;8100;50.994;4.538;2023-12-28T02:58:07;10.60;1.00
15991;DHT22;8100;50.994;4.538;2023-12-28T03:00:55;10.70;1.00
15991;DHT22;8100;50.994;4.538;2023-12-28T03:03:42;10.70;1.00
15991;DHT22;8100;50.994;4.538;2023-12-28T03:06:30;10.60;1.00
15991;DHT22;8100;50.994;4.538;2023-12-28T03:09:16;10.60;1.00
15991;DHT22;8100;50.994;4.538;2023-12-28T03:12:04;10.60;1.00
15991;DHT22;8100;50.994;4.538;2023-12-28T03:14:51;10.50;1.00
15991;DHT22;8100;50.994;4.538;2023-12-28T03:17:40;10.60;1.00
15991;DHT22;8100;50.994;4.538;2023-12-28T03:20:27;10.60;1.00
15991;DHT22;8100;50.994;4.538;2023-12-28T03:23:14;10.60;1.00
15991;DHT22;8100;50.994;4.538;2023-12-28T03:26:01;10.60;1.00
15991;DHT22;8100;50.994;4.538;2023-12-28T03:28:48;10.50;1.00
15991;DHT22;8100;50.994;4.538;2023-12-28T03:31:38;10.50;1.00
15991;DHT22;8100;50.994;4.538;2023-12-28T03:34:27;10.60;1.00
15991;DHT22;8100;50.994;4.538;2023-12-28T03:37:15;10.50;1.00
15991;DHT22;8100;50.994;4.538;2023-12-28T03:40:03;10.60;1.00
15991;DHT22;8100;50.994;4.538;2023-12-28T03:42:50;10.60;1.00
15991;DHT22;8100;50.994;4.538;2023-12-28T03:45:37;10.60;1.00
15991;DHT22;8100;50.994;4.538;2023-12-28T03:48:24;10.60;1.00
15991;DHT22;8100;50.994;4.538;2023-12-28T03:51:15;10.70;1.00
15991;DHT22;8100;50.994;4.538;2023-12-28T03:54:02;10.80;1.00
15991;DHT22;8100;50.994;4.538;2023-12-28T03:56:49;10.70;1.00
15991;DHT22;8100;50.994;4.538;2023-12-28T03:59:36;10.60;1.00
15991;DHT22;8100;50.994;4.538;2023-12-28T04:02:23;10.50;1.00
15991;DHT22;8100;50.994;4.538;2023-12-28T04:05:10;10.60;1.00
15991;DHT22;8100;50.994;4.538;2023-12-28T04:07:58;10.70;1.00
15991;DHT22;8100;50.994;4.538;2023-12-28T04:10:46;10.70;1.00
15991;DHT22;8100;50.994;4.538;2023-12-28T04:13:33;10.70;99.90
15991;DHT22;8100;50.994;4.538;2023-12-28T04:16:20;10.80;99.90
15991;DHT22;8100;50.994;4.538;2023-12-28T04:19:07;10.80;99.90
15991;DHT22;8100;50.994;4.538;2023-12-28T04:21:54;10.80;99.90
15991;DHT22;8100;50.994;4.538;2023-12-28T04:24:43;10.70;99.90
15991;DHT22;8100;50.994;4.538;2023-12-28T04:27:30;10.60;99.90
15991;DHT22;8100;50.994;4.538;2023-12-28T04:30:17;10.70;99.90
15991;DHT22;8100;50.994;4.538;2023-12-28T04:33:04;10.70;99.90
15991;DHT22;8100;50.994;4.538;2023-12-28T04:35:51;10.70;99.90
15991;DHT22;8100;50.994;4.538;2023-12-28T04:38:38;10.60;99.90
15991;DHT22;8100;50.994;4.538;2023-12-28T04:41:27;10.60;99.90
15991;DHT22;8100;50.994;4.538;2023-12-28T04:44:13;10.70;99.90
15991;DHT22;8100;50.994;4.538;2023-12-28T04:47:00;10.70;99.90
15991;DHT22;8100;50.994;4.538;2023-12-28T04:49:48;10.80;99.90
15991;DHT22;8100;50.994;4.538;2023-12-28T04:52:34;10.70;99.90
15991;DHT22;8100;50.994;4.538;2023-12-28T04:55:21;10.80;99.90
15991;DHT22;8100;50.994;4.538;2023-12-28T04:58:11;10.70;99.90
15991;DHT22;8100;50.994;4.538;2023-12-28T05:01:00;10.70;99.90
15991;DHT22;8100;50.994;4.538;2023-12-28T05:03:48;10.70;99.90
15991;DHT22;8100;50.994;4.538;2023-12-28T05:06:35;10.70;99.90
15991;DHT22;8100;50.994;4.538;2023-12-28T05:09:22;10.60;99.90
15991;DHT22;8100;50.994;4.538;2023-12-28T05:12:09;10.60;99.90
15991;DHT22;8100;50.994;4.538;2023-12-28T05:14:57;10.60;99.90
15991;DHT22;8100;50.994;4.538;2023-12-28T05:17:44;10.60;99.90
15991;DHT22;8100;50.994;4.538;2023-12-28T05:20:31;10.50;99.90
15991;DHT22;8100;50.994;4.538;2023-12-28T05:23:18;10.50;99.90
15991;DHT22;8100;50.994;4.538;2023-12-28T05:26:05;10.50;99.90
15991;DHT22;8100;50.994;4.538;2023-12-28T05:28:52;10.50;99.90
15991;DHT22;8100;50.994;4.538;2023-12-28T05:31:40;10.50;99.90
15991;DHT22;8100;50.994;4.538;2023-12-28T05:34:27;10.50;99.90
15991;DHT22;8100;50.994;4.538;2023-12-28T05:37:14;10.50;99.90
15991;DHT22;8100;50.994;4.538;2023-12-28T05:40:01;10.50;99.90
15991;DHT22;8100;50.994;4.538;2023-12-28T05:42:48;10.60;99.90
15991;DHT22;8100;50.994;4.538;2023-12-28T05:45:35;10.60;99.90
15991;DHT22;8100;50.994;4.538;2023-12-28T05:48:24;10.50;99.90
15991;DHT22;8100;50.994;4.538;2023-12-28T05:51:11;10.40;99.90
15991;DHT22;8100;50.994;4.538;2023-12-28T05:53:57;10.50;99.90
15991;DHT22;8100;50.994;4.538;2023-12-28T05:56:44;10.50;99.90
15991;DHT22;8100;50.994;4.538;2023-12-28T05:59:31;10.40;99.90
15991;DHT22;8100;50.994;4.538;2023-12-28T06:02:18;10.30;99.90
15991;DHT22;8100;50.994;4.538;2023-12-28T06:05:07;10.30;99.90
15991;DHT22;8100;50.994;4.538;2023-12-28T06:07:54;10.40;99.90
15991;DHT22;8100;50.994;4.538;2023-12-28T06:10:41;10.40;99.90
15991;DHT22;8100;50.994;4.538;2023-12-28T06:13:28;10.30;99.90
15991;DHT22;8100;50.994;4.538;2023-12-28T06:16:15;10.30;99.90
15991;DHT22;8100;50.994;4.538;2023-12-28T06:19:02;10.30;99.90
15991;DHT22;8100;50.994;4.538;2023-12-28T06:21:50;10.30;99.90
15991;DHT22;8100;50.994;4.538;2023-12-28T06:24:37;10.30;99.90
15991;DHT22;8100;50.994;4.538;2023-12-28T06:27:25;10.30;99.90
15991;DHT22;8100;50.994;4.538;2023-12-28T06:30:13;10.30;99.90
15991;DHT22;8100;50.994;4.538;2023-12-28T06:33:00;10.30;99.90
15991;DHT22;8100;50.994;4.538;2023-12-28T06:35:46;10.30;99.90
15991;DHT22;8100;50.994;4.538;2023-12-28T06:38:35;10.30;99.90
15991;DHT22;8100;50.994;4.538;2023-12-28T06:41:23;10.20;99.90
15991;DHT22;8100;50.994;4.538;2023-12-28T06:44:11;10.30;99.90
15991;DHT22;8100;50.994;4.538;2023-12-28T06:46:59;10.20;99.90
15991;DHT22;8100;50.994;4.538;2023-12-28T06:49:46;10.20;99.90
15991;DHT22;8100;50.994;4.538;2023-12-28T06:52:33;10.10;99.90
15991;DHT22;8100;50.994;4.538;2023-12-28T06:55:21;10.20;99.90
15991;DHT22;8100;50.994;4.538;2023-12-28T06:58:08;10.20;99.90
15991;DHT22;8100;50.994;4.538;2023-12-28T07:00:55;10.10;99.90
15991;DHT22;8100;50.994;4.538;2023-12-28T07:03:42;10.10;99.90
15991;DHT22;8100;50.994;4.538;2023-12-28T07:06:29;10.00;99.90
15991;DHT22;8100;50.994;4.538;2023-12-28T07:09:16;10.10;99.90
15991;DHT22;8100;50.994;4.538;2023-12-28T07:12:06;10.00;99.90
15991;DHT22;8100;50.994;4.538;2023-12-28T07:14:53;10.00;99.90
15991;DHT22;8100;50.994;4.538;2023-12-28T07:17:40;10.10;99.90
15991;DHT22;8100;50.994;4.538;2023-12-28T07:20:27;10.10;99.90
15991;DHT22;8100;50.994;4.538;2023-12-28T07:23:14;10.00;99.90
15991;DHT22;8100;50.994;4.538;2023-12-28T07:26:01;10.00;99.90
15991;DHT22;8100;50.994;4.538;2023-12-28T07:28:49;9.90;99.90
15991;DHT22;8100;50.994;4.538;2023-12-28T07:31:36;9.90;99.90
15991;DHT22;8100;50.994;4.538;2023-12-28T07:34:23;10.00;99.90
15991;DHT22;8100;50.994;4.538;2023-12-28T07:37:10;9.90;99.90
15991;DHT22;8100;50.994;4.538;2023-12-28T07:39:57;10.00;99.90
15991;DHT22;8100;50.994;4.538;2023-12-28T07:42:45;9.90;99.90
15991;DHT22;8100;50.994;4.538;2023-12-28T07:45:33;9.90;99.90
15991;DHT22;8100;50.994;4.538;2023-12-28T07:48:20;9.80;99.90
15991;DHT22;8100;50.994;4.538;2023-12-28T07:51:07;9.90;99.90
15991;DHT22;8100;50.994;4.538;2023-12-28T07:53:54;9.90;99.90
15991;DHT22;8100;50.994;4.538;2023-12-28T07:56:41;9.90;99.90
15991;DHT22;8100;50.994;4.538;2023-12-28T07:59:28;9.90;99.90
15991;DHT22;8100;50.994;4.538;2023-12-28T08:02:18;10.00;99.90
15991;DHT22;8100;50.994;4.538;2023-12-28T08:05:05;9.90;99.90
15991;DHT22;8100;50.994;4.538;2023-12-28T08:07:52;10.00;99.90
15991;DHT22;8100;50.994;4.538;2023-12-28T08:10:39;10.00;99.90
15991;DHT22;8100;50.994;4.538;2023-12-28T08:13:26;10.00;99.90
15991;DHT22;8100;50.994;4.538;2023-12-28T08:16:13;10.00;99.90
15991;DHT22;8100;50.994;4.538;2023-12-28T08:19:01;10.00;99.90
15991;DHT22;8100;50.994;4.538;2023-12-28T08:21:49;10.00;99.90
15991;DHT22;8100;50.994;4.538;2023-12-28T08:24:35;10.00;99.90
15991;DHT22;8100;50.994;4.538;2023-12-28T08:27:22;10.00;99.90
15991;DHT22;8100;50.994;4.538;2023-12-28T08:30:10;10.10;99.90
15991;DHT22;8100;50.994;4.538;2023-12-28T08:32:57;10.20;99.90
15991;DHT22;8100;50.994;4.538;2023-12-28T08:35:45;10.20;99.90
15991;DHT22;8100;50.994;4.538;2023-12-28T08:38:32;10.20;99.90
15991;DHT22;8100;50.994;4.538;2023-12-28T08:41:19;10.30;97.60
15991;DHT22;8100;50.994;4.538;2023-12-28T08:44:06;10.30;99.90
15991;DHT22;8100;50.994;4.538;2023-12-28T08:46:53;10.50;59.20
15991;DHT22;8100;50.994;4.538;2023-12-28T08:49:40;10.50;51.40
15991;DHT22;8100;50.994;4.538;2023-12-28T08:52:29;10.50;77.90
15991;DHT22;8100;50.994;4.538;2023-12-28T08:55:16;10.50;63.90
15991;DHT22;8100;50.994;4.538;2023-12-28T08:58:03;10.50;47.50
15991;DHT22;8100;50.994;4.538;2023-12-28T09:00:50;10.60;39.00
15991;DHT22;8100;50.994;4.538;2023-12-28T09:03:37;10.60;44.30
15991;DHT22;8100;50.994;4.538;2023-12-28T09:06:24;10.60;31.80
15991;DHT22;8100;50.994;4.538;2023-12-28T09:09:12;10.50;25.90
15991;DHT22;8100;50.994;4.538;2023-12-28T09:11:59;10.50;61.80
15991;DHT22;8100;50.994;4.538;2023-12-28T09:14:47;10.40;79.10
15991;DHT22;8100;50.994;4.538;2023-12-28T09:17:34;10.50;10.90
15991;DHT22;8100;50.994;4.538;2023-12-28T09:20:21;10.60;1.00
15991;DHT22;8100;50.994;4.538;2023-12-28T09:23:08;10.60;1.00
15991;DHT22;8100;50.994;4.538;2023-12-28T09:25:57;10.60;1.00
15991;DHT22;8100;50.994;4.538;2023-12-28T09:28:44;10.50;6.00
15991;DHT22;8100;50.994;4.538;2023-12-28T09:31:31;10.50;27.50
15991;DHT22;8100;50.994;4.538;2023-12-28T09:34:18;10.50;68.70
15991;DHT22;8100;50.994;4.538;2023-12-28T09:37:05;10.60;38.70
15991;DHT22;8100;50.994;4.538;2023-12-28T09:39:52;10.60;28.00
15991;DHT22;8100;50.994;4.538;2023-12-28T09:42:53;10.60;44.40
15991;DHT22;8100;50.994;4.538;2023-12-28T09:45:46;10.60;1.00
15991;DHT22;8100;50.994;4.538;2023-12-28T09:48:33;10.70;1.00
15991;DHT22;8100;50.994;4.538;2023-12-28T09:51:21;10.70;27.60
15991;DHT22;8100;50.994;4.538;2023-12-28T09:54:08;10.80;6.70
15991;DHT22;8100;50.994;4.538;2023-12-28T09:56:55;10.80;1.00
15991;DHT22;8100;50.994;4.538;2023-12-28T09:59:44;10.80;1.00
15991;DHT22;8100;50.994;4.538;2023-12-28T10:02:32;10.80;1.00
15991;DHT22;8100;50.994;4.538;2023-12-28T10:05:20;10.90;1.00
15991;DHT22;8100;50.994;4.538;2023-12-28T10:08:07;10.90;1.00
15991;DHT22;8100;50.994;4.538;2023-12-28T10:10:54;11.00;1.00
15991;DHT22;8100;50.994;4.538;2023-12-28T10:13:44;11.10;1.00
15991;DHT22;8100;50.994;4.538;2023-12-28T10:16:33;11.10;1.00
15991;DHT22;8100;50.994;4.538;2023-12-28T10:19:21;11.10;1.00
15991;DHT22;8100;50.994;4.538;2023-12-28T10:22:09;11.00;1.00
15991;DHT22;8100;50.994;4.538;2023-12-28T10:24:56;11.00;1.00
15991;DHT22;8100;50.994;4.538;2023-12-28T10:27:44;11.10;1.00
15991;DHT22;8100;50.994;4.538;2023-12-28T10:30:31;11.00;1.00
15991;DHT22;8100;50.994;4.538;2023-12-28T10:33:20;11.00;1.00
15991;DHT22;8100;50.994;4.538;2023-12-28T10:36:08;11.00;1.00
15991;DHT22;8100;50.994;4.538;2023-12-28T10:38:57;11.00;1.00
15991;DHT22;8100;50.994;4.538;2023-12-28T10:41:49;11.00;1.00
15991;DHT22;8100;50.994;4.538;2023-12-28T10:44:39;11.10;1.00
15991;DHT22;8100;50.994;4.538;2023-12-28T10:47:28;11.10;1.00
15991;DHT22;8100;50.994;4.538;2023-12-28T10:50:20;11.10;1.00
15991;DHT22;8100;50.994;4.538;2023-12-28T10:53:21;11.10;1.00
15991;DHT22;8100;50.994;4.538;2023-12-28T10:56:20;11.20;1.00
15991;DHT22;8100;50.994;4.538;2023-12-28T10:59:16;11.20;1.00
15991;DHT22;8100;50.994;4.538;2023-12-28T11:02:05;11.20;1.00
15991;DHT22;8100;50.994;4.538;2023-12-28T11:04:54;11.30;1.00
15991;DHT22;8100;50.994;4.538;2023-12-28T11:07:43;11.20;1.00
15991;DHT22;8100;50.994;4.538;2023-12-28T11:10:32;11.20;1.00
15991;DHT22;8100;50.994;4.538;2023-12-28T11:13:20;11.20;1.00
15991;DHT22;8100;50.994;4.538;2023-12-28T11:16:08;11.20;1.00
15991;DHT22;8100;50.994;4.538;2023-12-28T11:18:56;11.20;1.00
15991;DHT22;8100;50.994;4.538;2023-12-28T11:21:44;11.20;1.00
15991;DHT22;8100;50.994;4.538;2023-12-28T11:24:32;11.20;1.00
15991;DHT22;8100;50.994;4.538;2023-12-28T11:27:20;11.30;1.00
15991;DHT22;8100;50.994;4.538;2023-12-28T11:30:10;11.20;1.00
15991;DHT22;8100;50.994;4.538;2023-12-28T11:32:57;11.30;1.00
15991;DHT22;8100;50.994;4.538;2023-12-28T11:35:47;11.30;1.00
15991;DHT22;8100;50.994;4.538;2023-12-28T11:38:34;11.30;1.00
15991;DHT22;8100;50.994;4.538;2023-12-28T11:41:24;11.30;1.00
15991;DHT22;8100;50.994;4.538;2023-12-28T11:44:11;11.30;1.00
15991;DHT22;8100;50.994;4.538;2023-12-28T11:46:58;11.30;1.00
15991;DHT22;8100;50.994;4.538;2023-12-28T11:49:45;11.40;1.00
15991;DHT22;8100;50.994;4.538;2023-12-28T11:52:33;11.40;1.00
15991;DHT22;8100;50.994;4.538;2023-12-28T11:55:21;11.40;1.00
15991;DHT22;8100;50.994;4.538;2023-12-28T11:58:10;11.40;1.00
15991;DHT22;8100;50.994;4.538;2023-12-28T12:00:57;11.50;1.00
15991;DHT22;8100;50.994;4.538;2023-12-28T12:03:44;11.40;1.00
15991;DHT22;8100;50.994;4.538;2023-12-28T12:06:31;11.40;1.00
15991;DHT22;8100;50.994;4.538;2023-12-28T12:09:18;11.50;1.00
15991;DHT22;8100;50.994;4.538;2023-12-28T12:12:08;11.40;1.00
15991;DHT22;8100;50.994;4.538;2023-12-28T12:14:56;11.40;1.00
15991;DHT22;8100;50.994;4.538;2023-12-28T12:17:44;11.40;1.00
15991;DHT22;8100;50.994;4.538;2023-12-28T12:20:31;11.50;1.00
15991;DHT22;8100;50.994;4.538;2023-12-28T12:23:18;11.50;1.00
15991;DHT22;8100;50.994;4.538;2023-12-28T12:26:05;11.50;1.00
15991;DHT22;8100;50.994;4.538;2023-12-28T12:28:53;11.50;1.00
15991;DHT22;8100;50.994;4.538;2023-12-28T12:31:41;11.60;1.00
15991;DHT22;8100;50.994;4.538;2023-12-28T12:34:29;11.60;1.00
15991;DHT22;8100;50.994;4.538;2023-12-28T12:37:16;11.60;1.00
15991;DHT22;8100;50.994;4.538;2023-12-28T12:40:04;11.60;1.00
15991;DHT22;8100;50.994;4.538;2023-12-28T12:42:52;11.60;1.00
15991;DHT22;8100;50.994;4.538;2023-12-28T12:45:40;11.60;1.00
15991;DHT22;8100;50.994;4.538;2023-12-28T12:48:28;11.60;1.00
15991;DHT22;8100;50.994;4.538;2023-12-28T12:51:18;11.60;1.00
15991;DHT22;8100;50.994;4.538;2023-12-28T12:54:05;11.50;1.00
15991;DHT22;8100;50.994;4.538;2023-12-28T12:56:52;11.60;1.00
15991;DHT22;8100;50.994;4.538;2023-12-28T12:59:42;11.50;1.00
15991;DHT22;8100;50.994;4.538;2023-12-28T13:02:29;11.50;1.00
15991;DHT22;8100;50.994;4.538;2023-12-28T13:05:18;11.50;1.00
15991;DHT22;8100;50.994;4.538;2023-12-28T13:08:05;11.50;1.00
15991;DHT22;8100;50.994;4.538;2023-12-28T13:10:52;11.50;1.00
15991;DHT22;8100;50.994;4.538;2023-12-28T13:13:39;11.50;1.00
15991;DHT22;8100;50.994;4.538;2023-12-28T13:16:26;11.50;1.00
15991;DHT22;8100;50.994;4.538;2023-12-28T13:19:13;11.50;1.00
15991;DHT22;8100;50.994;4.538;2023-12-28T13:22:01;11.40;1.00
15991;DHT22;8100;50.994;4.538;2023-12-28T13:24:50;11.40;1.00
15991;DHT22;8100;50.994;4.538;2023-12-28T13:27:37;11.40;1.00
15991;DHT22;8100;50.994;4.538;2023-12-28T13:30:24;11.40;1.00
15991;DHT22;8100;50.994;4.538;2023-12-28T13:33:13;11.50;1.00
15991;DHT22;8100;50.994;4.538;2023-12-28T13:36:00;11.50;1.00
15991;DHT22;8100;50.994;4.538;2023-12-28T13:38:49;11.50;1.00
15991;DHT22;8100;50.994;4.538;2023-12-28T13:41:36;11.50;1.00
15991;DHT22;8100;50.994;4.538;2023-12-28T13:44:23;11.40;1.00
15991;DHT22;8100;50.994;4.538;2023-12-28T13:47:10;11.40;1.00
15991;DHT22;8100;50.994;4.538;2023-12-28T13:49:58;11.40;1.00
15991;DHT22;8100;50.994;4.538;2023-12-28T13:52:45;11.40;1.00
15991;DHT22;8100;50.994;4.538;2023-12-28T13:55:34;11.40;1.00
15991;DHT22;8100;50.994;4.538;2023-12-28T13:58:21;11.40;1.00
15991;DHT22;8100;50.994;4.538;2023-12-28T14:01:08;11.40;1.00
15991;DHT22;8100;50.994;4.538;2023-12-28T14:03:56;11.30;1.00
15991;DHT22;8100;50.994;4.538;2023-12-28T14:06:42;11.40;1.00
15991;DHT22;8100;50.994;4.538;2023-12-28T14:09:29;11.30;1.00
15991;DHT22;8100;50.994;4.538;2023-12-28T14:12:20;11.30;1.00
15991;DHT22;8100;50.994;4.538;2023-12-28T14:15:08;11.40;1.00
15991;DHT22;8100;50.994;4.538;2023-12-28T14:17:55;11.30;1.00
15991;DHT22;8100;50.994;4.538;2023-12-28T14:20:42;11.30;1.00
15991;DHT22;8100;50.994;4.538;2023-12-28T14:23:29;11.30;1.00
15991;DHT22;8100;50.994;4.538;2023-12-28T14:26:17;11.30;1.00
15991;DHT22;8100;50.994;4.538;2023-12-28T14:29:06;11.30;1.00
15991;DHT22;8100;50.994;4.538;2023-12-28T14:31:54;11.20;1.00
15991;DHT22;8100;50.994;4.538;2023-12-28T14:34:41;11.20;1.00
15991;DHT22;8100;50.994;4.538;2023-12-28T14:37:28;11.20;1.00
15991;DHT22;8100;50.994;4.538;2023-12-28T14:40:15;11.20;1.00
15991;DHT22;8100;50.994;4.538;2023-12-28T14:43:03;11.20;1.00
15991;DHT22;8100;50.994;4.538;2023-12-28T14:45:51;11.20;1.00
15991;DHT22;8100;50.994;4.538;2023-12-28T14:48:38;11.20;1.00
15991;DHT22;8100;50.994;4.538;2023-12-28T14:51:25;11.10;1.00
15991;DHT22;8100;50.994;4.538;2023-12-28T14:54:13;11.20;1.00
15991;DHT22;8100;50.994;4.538;2023-12-28T14:57:00;11.10;1.00
15991;DHT22;8100;50.994;4.538;2023-12-28T14:59:47;11.10;1.00
15991;DHT22;8100;50.994;4.538;2023-12-28T15:02:35;11.10;1.00
15991;DHT22;8100;50.994;4.538;2023-12-28T15:05:22;11.00;1.00
15991;DHT22;8100;50.994;4.538;2023-12-28T15:08:09;11.00;1.00
15991;DHT22;8100;50.994;4.538;2023-12-28T15:10:57;11.00;1.00
15991;DHT22;8100;50.994;4.538;2023-12-28T15:13:44;11.00;1.00
15991;DHT22;8100;50.994;4.538;2023-12-28T15:16:32;11.00;1.00
15991;DHT22;8100;50.994;4.538;2023-12-28T15:19:21;11.00;1.00
15991;DHT22;8100;50.994;4.538;2023-12-28T15:22:09;10.90;1.00
15991;DHT22;8100;50.994;4.538;2023-12-28T15:24:55;10.90;1.00
15991;DHT22;8100;50.994;4.538;2023-12-28T15:27:44;10.90;1.00
15991;DHT22;8100;50.994;4.538;2023-12-28T15:30:31;10.90;1.00
15991;DHT22;8100;50.994;4.538;2023-12-28T15:33:18;10.80;1.00
15991;DHT22;8100;50.994;4.538;2023-12-28T15:36:06;10.80;1.00
15991;DHT22;8100;50.994;4.538;2023-12-28T15:38:53;10.90;1.00
15991;DHT22;8100;50.994;4.538;2023-12-28T15:41:40;10.80;1.00
15991;DHT22;8100;50.994;4.538;2023-12-28T15:44:27;10.90;1.00
15991;DHT22;8100;50.994;4.538;2023-12-28T15:47:14;10.90;1.00
15991;DHT22;8100;50.994;4.538;2023-12-28T15:50:03;10.90;1.00
15991;DHT22;8100;50.994;4.538;2023-12-28T15:52:51;10.90;1.00
15991;DHT22;8100;50.994;4.538;2023-12-28T15:55:38;10.80;1.00
15991;DHT22;8100;50.994;4.538;2023-12-28T15:58:25;10.80;1.00
15991;DHT22;8100;50.994;4.538;2023-12-28T16:01:12;10.90;1.00
15991;DHT22;8100;50.994;4.538;2023-12-28T16:03:59;10.90;1.00
15991;DHT22;8100;50.994;4.538;2023-12-28T16:06:46;10.90;1.00
15991;DHT22;8100;50.994;4.538;2023-12-28T16:09:34;10.80;1.00
15991;DHT22;8100;50.994;4.538;2023-12-28T16:12:21;10.80;1.00
15991;DHT22;8100;50.994;4.538;2023-12-28T16:15:09;10.80;1.00
15991;DHT22;8100;50.994;4.538;2023-12-28T16:17:57;10.90;1.00
15991;DHT22;8100;50.994;4.538;2023-12-28T16:20:44;10.80;1.00
15991;DHT22;8100;50.994;4.538;2023-12-28T16:23:32;10.70;1.00
15991;DHT22;8100;50.994;4.538;2023-12-28T16:26:20;10.80;1.00
15991;DHT22;8100;50.994;4.538;2023-12-28T16:29:07;10.90;1.00
15991;DHT22;8100;50.994;4.538;2023-12-28T16:31:54;11.00;1.00
15991;DHT22;8100;50.994;4.538;2023-12-28T16:34:46;10.90;1.00
15991;DHT22;8100;50.994;4.538;2023-12-28T16:37:33;10.90;1.00
15991;DHT22;8100;50.994;4.538;2023-12-28T16:40:20;11.00;1.00
15991;DHT22;8100;50.994;4.538;2023-12-28T16:43:08;11.00;1.00
15991;DHT22;8100;50.994;4.538;2023-12-28T16:45:55;11.00;1.00
15991;DHT22;8100;50.994;4.538;2023-12-28T16:48:42;11.00;1.00
15991;DHT22;8100;50.994;4.538;2023-12-28T16:51:29;11.00;1.00
15991;DHT22;8100;50.994;4.538;2023-12-28T16:54:16;11.00;1.00
15991;DHT22;8100;50.994;4.538;2023-12-28T16:57:03;11.10;1.00
15991;DHT22;8100;50.994;4.538;2023-12-28T16:59:53;11.00;1.00
15991;DHT22;8100;50.994;4.538;2023-12-28T17:02:40;11.00;1.00
15991;DHT22;8100;50.994;4.538;2023-12-28T17:05:27;11.00;1.00
15991;DHT22;8100;50.994;4.538;2023-12-28T17:08:14;11.00;1.00
15991;DHT22;8100;50.994;4.538;2023-12-28T17:11:02;11.00;1.00
15991;DHT22;8100;50.994;4.538;2023-12-28T17:13:49;11.00;1.00
15991;DHT22;8100;50.994;4.538;2023-12-28T17:16:39;11.10;1.00
15991;DHT22;8100;50.994;4.538;2023-12-28T17:19:26;11.00;1.00
15991;DHT22;8100;50.994;4.538;2023-12-28T17:22:13;11.00;1.00
15991;DHT22;8100;50.994;4.538;2023-12-28T17:25:07;11.00;1.00
15991;DHT22;8100;50.994;4.538;2023-12-28T17:28:04;10.90;1.00
15991;DHT22;8100;50.994;4.538;2023-12-28T17:30:52;10.90;1.00
15991;DHT22;8100;50.994;4.538;2023-12-28T17:33:41;10.90;1.00
15991;DHT22;8100;50.994;4.538;2023-12-28T17:36:29;10.80;1.00
15991;DHT22;8100;50.994;4.538;2023-12-28T17:39:17;10.90;1.00
15991;DHT22;8100;50.994;4.538;2023-12-28T17:42:06;10.90;1.00
15991;DHT22;8100;50.994;4.538;2023-12-28T17:44:57;11.00;1.00
15991;DHT22;8100;50.994;4.538;2023-12-28T17:47:51;11.00;1.00
15991;DHT22;8100;50.994;4.538;2023-12-28T17:50:41;10.90;1.00
15991;DHT22;8100;50.994;4.538;2023-12-28T17:53:29;11.00;1.00
15991;DHT22;8100;50.994;4.538;2023-12-28T17:56:16;11.00;1.00
15991;DHT22;8100;50.994;4.538;2023-12-28T17:59:04;10.90;1.00
15991;DHT22;8100;50.994;4.538;2023-12-28T18:01:52;10.90;1.00
15991;DHT22;8100;50.994;4.538;2023-12-28T18:04:39;11.00;1.00
15991;DHT22;8100;50.994;4.538;2023-12-28T18:07:27;11.00;1.00
15991;DHT22;8100;50.994;4.538;2023-12-28T18:10:14;11.00;1.00